Time;durP1;ratioP1;P1;durP2;ratioP2;P2;SDS_P1;SDS_P2;PMS_P1;PMS_P2;Temp;Humidity;BMP_temperature;BMP_pressure;BME280_temperature;BME280_humidity;BME280_pressure;Samples;Min_cycle;Max_cycle;Signal;HPM_P1;HPM_P2
2021/06/19 00:00:14;;;;;;;11.85;10.07;;;;;;;;;;1910529;75;20088;-78
2021/06/19 00:02:41;;;;;;;11.67;10.50;;;;;;;;;;1914000;67;20092;-78
2021/06/19 00:05:10;;;;;;;11.25;10.25;;;;;;;;;;1915122;75;20096;-78
2021/06/19 00:07:37;;;;;;;19.27;12.00;;;;;;;;;;1915543;75;20218;-78
2021/06/19 00:10:05;;;;;;;14.98;13.48;;;;;;;;;;1915570;75;20088;-78
2021/06/19 00:12:34;;;;;;;14.65;13.18;;;;;;;;;;1915485;75;20567;-78
2021/06/19 00:15:01;;;;;;;15.65;13.65;;;;;;;;;;1915936;75;20568;-78
2021/06/19 00:17:28;;;;;;;14.63;13.27;;;;;;;;;;1912793;75;20502;-77
2021/06/19 00:19:54;;;;;;;15.10;13.65;;;;;;;;;;1910332;75;20100;-77
2021/06/19 00:22:21;;;;;;;15.07;13.57;;;;;;;;;;1910685;75;20162;-78
2021/06/19 00:24:48;;;;;;;13.68;12.25;;;;;;;;;;1910206;75;20509;-77
2021/06/19 00:27:14;;;;;;;14.65;13.30;;;;;;;;;;1910081;75;20556;-77
2021/06/19 00:29:43;;;;;;;14.25;12.70;;;;;;;;;;1910113;75;20088;-78
2021/06/19 00:32:10;;;;;;;14.57;13.17;;;;;;;;;;1912414;75;20087;-79
2021/06/19 00:34:37;;;;;;;14.60;13.20;;;;;;;;;;1910683;75;20095;-80
2021/06/19 00:37:04;;;;;;;13.80;12.32;;;;;;;;;;1910882;75;20092;-79
2021/06/19 00:39:31;;;;;;;11.73;10.55;;;;;;;;;;1911781;75;20088;-79
2021/06/19 00:41:58;;;;;;;11.65;10.45;;;;;;;;;;1912007;75;20095;-79
2021/06/19 00:44:24;;;;;;;11.73;10.63;;;;;;;;;;1911082;75;20518;-78
2021/06/19 00:46:53;;;;;;;11.32;10.32;;;;;;;;;;1911936;75;20091;-78
2021/06/19 00:49:21;;;;;;;12.10;10.77;;;;;;;;;;1912147;75;20092;-79
2021/06/19 00:51:48;;;;;;;10.95;9.85;;;;;;;;;;1912035;75;20088;-79
2021/06/19 00:54:18;;;;;;;11.43;10.05;;;;;;;;;;1911723;75;20099;-79
2021/06/19 00:56:46;;;;;;;10.80;9.80;;;;;;;;;;1911839;75;20096;-81
2021/06/19 00:59:14;;;;;;;14.85;10.10;;;;;;;;;;1912487;75;20141;-80
2021/06/19 01:01:41;;;;;;;11.23;9.93;;;;;;;;;;1912171;67;20411;-81
2021/06/19 01:04:09;;;;;;;11.23;9.95;;;;;;;;;;1912419;75;20088;-80
2021/06/19 01:06:37;;;;;;;11.00;9.88;;;;;;;;;;1911558;75;20145;-79
2021/06/19 01:09:06;;;;;;;10.95;9.82;;;;;;;;;;1910456;75;20100;-78
2021/06/19 01:11:34;;;;;;;10.57;9.47;;;;;;;;;;1910518;75;20088;-80
2021/06/19 01:14:01;;;;;;;10.68;9.77;;;;;;;;;;1910329;75;20308;-79
2021/06/19 01:16:28;;;;;;;10.80;9.80;;;;;;;;;;1910273;75;20084;-78
2021/06/19 01:18:55;;;;;;;10.82;9.73;;;;;;;;;;1911912;75;20096;-80
2021/06/19 01:21:25;;;;;;;11.27;10.02;;;;;;;;;;1911829;75;20159;-78
2021/06/19 01:23:53;;;;;;;11.10;9.93;;;;;;;;;;1910022;75;20092;-81
2021/06/19 01:26:24;;;;;;;10.85;9.68;;;;;;;;;;1910419;75;20084;-78
2021/06/19 01:28:51;;;;;;;10.50;9.35;;;;;;;;;;1910113;75;20088;-77
2021/06/19 01:31:19;;;;;;;10.93;9.93;;;;;;;;;;1910411;75;20510;-78
2021/06/19 01:33:48;;;;;;;11.23;9.68;;;;;;;;;;1910205;75;20506;-79
2021/06/19 01:36:16;;;;;;;10.70;9.60;;;;;;;;;;1910439;75;20099;-79
2021/06/19 01:38:44;;;;;;;11.25;9.60;;;;;;;;;;1910450;75;20092;-81
2021/06/19 01:41:14;;;;;;;11.02;9.93;;;;;;;;;;1910757;75;20088;-80
2021/06/19 01:43:48;;;;;;;11.02;9.98;;;;;;;;;;1910441;75;20461;-79
2021/06/19 01:46:16;;;;;;;11.07;9.40;;;;;;;;;;1910798;75;20434;-79
2021/06/19 01:48:43;;;;;;;11.00;9.90;;;;;;;;;;1910835;75;20092;-77
2021/06/19 01:51:10;;;;;;;10.93;9.80;;;;;;;;;;1910299;75;20096;-78
2021/06/19 01:53:39;;;;;;;11.65;10.10;;;;;;;;;;1910404;75;20088;-80
2021/06/19 01:56:06;;;;;;;10.80;9.75;;;;;;;;;;1910452;75;20088;-79
2021/06/19 01:58:33;;;;;;;11.25;10.15;;;;;;;;;;1911060;75;20087;-78
2021/06/19 02:01:01;;;;;;;12.10;10.82;;;;;;;;;;1910866;75;20138;-80
2021/06/19 02:03:28;;;;;;;11.10;10.00;;;;;;;;;;1910377;67;20095;-79
2021/06/19 02:05:55;;;;;;;12.15;10.95;;;;;;;;;;1910803;75;20291;-78
2021/06/19 02:08:22;;;;;;;11.35;10.35;;;;;;;;;;1911051;75;20393;-78
2021/06/19 02:10:49;;;;;;;13.10;11.23;;;;;;;;;;1910719;75;20100;-78
2021/06/19 02:13:16;;;;;;;12.13;10.80;;;;;;;;;;1910265;75;20550;-79
2021/06/19 02:15:45;;;;;;;12.23;11.13;;;;;;;;;;1910157;75;20088;-79
2021/06/19 02:18:14;;;;;;;12.43;11.27;;;;;;;;;;1910126;75;20084;-78
2021/06/19 02:20:41;;;;;;;11.93;10.73;;;;;;;;;;1910155;75;20505;-78
2021/06/19 02:23:08;;;;;;;11.60;10.50;;;;;;;;;;1910513;75;20088;-78
2021/06/19 02:25:34;;;;;;;12.05;10.80;;;;;;;;;;1910661;75;20084;-78
2021/06/19 02:28:03;;;;;;;12.15;11.05;;;;;;;;;;1910514;75;20118;-78
2021/06/19 02:30:33;;;;;;;12.20;11.00;;;;;;;;;;1910456;75;20092;-78
2021/06/19 02:33:00;;;;;;;11.98;10.75;;;;;;;;;;1911777;75;20088;-78
2021/06/19 02:35:30;;;;;;;12.50;11.20;;;;;;;;;;1912347;75;20150;-79
2021/06/19 02:37:57;;;;;;;12.07;11.00;;;;;;;;;;1912541;75;20149;-79
2021/06/19 02:40:25;;;;;;;12.95;11.65;;;;;;;;;;1912959;75;20110;-79
2021/06/19 02:42:52;;;;;;;12.07;10.88;;;;;;;;;;1914392;75;20099;-79
2021/06/19 02:45:19;;;;;;;12.10;10.75;;;;;;;;;;1913840;75;20137;-78
2021/06/19 02:47:48;;;;;;;12.27;11.07;;;;;;;;;;1912984;75;20137;-79
2021/06/19 02:50:17;;;;;;;12.07;10.80;;;;;;;;;;1912991;75;20088;-79
2021/06/19 02:52:45;;;;;;;13.27;11.97;;;;;;;;;;1913458;75;20389;-80
2021/06/19 02:55:13;;;;;;;12.98;11.68;;;;;;;;;;1912711;75;20088;-80
2021/06/19 02:57:40;;;;;;;12.35;11.25;;;;;;;;;;1912544;75;20092;-79
2021/06/19 03:00:09;;;;;;;13.23;11.80;;;;;;;;;;1912435;75;20096;-80
2021/06/19 03:02:36;;;;;;;12.77;11.48;;;;;;;;;;1911182;67;20142;-81
2021/06/19 03:05:05;;;;;;;12.73;11.43;;;;;;;;;;1909339;75;20084;-80
2021/06/19 03:07:32;;;;;;;12.05;10.85;;;;;;;;;;1909834;75;20091;-79
2021/06/19 03:10:00;;;;;;;11.95;10.75;;;;;;;;;;1910295;75;20092;-79
2021/06/19 03:12:27;;;;;;;12.02;10.82;;;;;;;;;;1907512;75;20097;-80
2021/06/19 03:14:54;;;;;;;11.93;10.77;;;;;;;;;;1907379;75;20111;-79
2021/06/19 03:17:21;;;;;;;12.13;10.93;;;;;;;;;;1907357;75;20461;-80
2021/06/19 03:19:48;;;;;;;11.95;10.32;;;;;;;;;;1907629;75;20092;-79
2021/06/19 03:22:15;;;;;;;13.35;10.82;;;;;;;;;;1907614;75;20084;-78
2021/06/19 03:24:43;;;;;;;11.68;10.48;;;;;;;;;;1907263;75;20084;-79
2021/06/19 03:27:17;;;;;;;11.20;9.98;;;;;;;;;;1907589;75;20112;-79
2021/06/19 03:29:43;;;;;;;12.00;10.65;;;;;;;;;;1907841;75;20088;-80
2021/06/19 03:32:11;;;;;;;11.23;10.13;;;;;;;;;;1907575;75;20142;-79
2021/06/19 03:34:40;;;;;;;12.20;10.95;;;;;;;;;;1907952;75;20129;-78
2021/06/19 03:37:07;;;;;;;12.63;10.93;;;;;;;;;;1908266;75;20100;-78
2021/06/19 03:39:36;;;;;;;13.77;12.32;;;;;;;;;;1908304;75;20097;-79
2021/06/19 03:42:03;;;;;;;11.68;10.57;;;;;;;;;;1908210;75;20162;-80
2021/06/19 03:44:31;;;;;;;12.20;10.93;;;;;;;;;;1908393;75;20084;-79
2021/06/19 03:46:58;;;;;;;11.55;10.45;;;;;;;;;;1908859;75;20460;-79
2021/06/19 03:49:25;;;;;;;11.95;10.43;;;;;;;;;;1910241;75;20099;-80
2021/06/19 03:51:52;;;;;;;11.68;10.45;;;;;;;;;;1908339;75;20088;-79
2021/06/19 03:54:19;;;;;;;11.98;10.77;;;;;;;;;;1908039;75;20096;-80
2021/06/19 03:56:46;;;;;;;11.25;10.15;;;;;;;;;;1908604;75;20395;-80
2021/06/19 03:59:13;;;;;;;12.57;10.45;;;;;;;;;;1908418;75;20144;-78
2021/06/19 04:04:09;;;;;;;12.40;11.18;;;;;;;;;;1911753;67;20171;-80
2021/06/19 04:06:35;;;;;;;11.35;10.25;;;;;;;;;;1908629;75;20089;-79
2021/06/19 04:09:02;;;;;;;11.43;10.23;;;;;;;;;;1911762;75;20100;-78
2021/06/19 04:11:29;;;;;;;11.55;10.35;;;;;;;;;;1912178;75;20124;-79
2021/06/19 04:13:56;;;;;;;12.68;10.60;;;;;;;;;;1910208;75;20088;-79
2021/06/19 04:16:22;;;;;;;12.07;10.80;;;;;;;;;;1914209;75;20096;-79
2021/06/19 04:18:49;;;;;;;11.90;10.80;;;;;;;;;;1914298;75;20162;-79
2021/06/19 04:21:18;;;;;;;13.55;10.52;;;;;;;;;;1914404;75;20089;-79
2021/06/19 04:23:44;;;;;;;12.13;10.93;;;;;;;;;;1914051;75;20099;-79
2021/06/19 04:26:12;;;;;;;12.45;10.45;;;;;;;;;;1913152;75;20134;-79
2021/06/19 04:28:39;;;;;;;12.35;11.10;;;;;;;;;;1912883;75;20085;-78
2021/06/19 04:31:06;;;;;;;13.02;10.38;;;;;;;;;;1912765;75;20115;-79
2021/06/19 04:33:32;;;;;;;12.60;9.90;;;;;;;;;;1912605;75;20166;-80
2021/06/19 04:36:01;;;;;;;11.45;10.30;;;;;;;;;;1912525;75;20100;-80
2021/06/19 04:38:29;;;;;;;10.65;9.57;;;;;;;;;;1912972;75;20570;-80
2021/06/19 04:40:59;;;;;;;11.85;10.38;;;;;;;;;;1911765;75;20088;-78
2021/06/19 04:43:29;;;;;;;12.90;11.47;;;;;;;;;;1912144;75;20096;-78
2021/06/19 04:45:56;;;;;;;12.02;10.27;;;;;;;;;;1911120;75;20084;-79
2021/06/19 04:48:23;;;;;;;12.40;10.25;;;;;;;;;;1911919;75;20092;-78
2021/06/19 04:50:52;;;;;;;12.48;10.27;;;;;;;;;;1912114;75;20092;-78
2021/06/19 04:53:19;;;;;;;11.77;10.38;;;;;;;;;;1912025;75;20162;-80
2021/06/19 04:55:47;;;;;;;11.30;10.18;;;;;;;;;;1912134;75;20093;-79
2021/06/19 04:58:14;;;;;;;11.13;9.93;;;;;;;;;;1909462;75;20089;-79
2021/06/19 05:00:41;;;;;;;12.40;10.23;;;;;;;;;;1912370;75;20093;-79
2021/06/19 05:03:08;;;;;;;11.38;10.02;;;;;;;;;;1912237;75;20092;-80
2021/06/19 05:05:35;;;;;;;11.73;9.52;;;;;;;;;;1908771;75;20111;-79
2021/06/19 05:08:02;;;;;;;11.30;9.88;;;;;;;;;;1908955;75;20112;-79
2021/06/19 05:10:30;;;;;;;10.82;9.73;;;;;;;;;;1910604;75;20126;-79
2021/06/19 05:12:58;;;;;;;14.48;9.23;;;;;;;;;;1915418;75;20143;-79
2021/06/19 05:15:27;;;;;;;12.23;9.40;;;;;;;;;;1915371;67;20099;-79
2021/06/19 05:17:55;;;;;;;11.80;9.20;;;;;;;;;;1915162;75;20115;-79
2021/06/19 05:20:22;;;;;;;11.30;9.45;;;;;;;;;;1915121;75;20165;-79
2021/06/19 05:22:49;;;;;;;11.52;9.10;;;;;;;;;;1915340;75;20122;-80
2021/06/19 05:25:16;;;;;;;11.13;9.52;;;;;;;;;;1911972;75;20092;-80
2021/06/19 05:27:43;;;;;;;10.73;9.35;;;;;;;;;;1912032;75;20103;-78
2021/06/19 05:30:13;;;;;;;11.52;9.13;;;;;;;;;;1914596;75;20088;-78
2021/06/19 05:32:40;;;;;;;10.45;9.40;;;;;;;;;;1911515;75;20092;-79
2021/06/19 05:35:08;;;;;;;10.32;8.52;;;;;;;;;;1915461;75;20100;-79
2021/06/19 05:37:35;;;;;;;10.40;8.95;;;;;;;;;;1915038;75;20092;-79
2021/06/19 05:40:02;;;;;;;11.85;9.60;;;;;;;;;;1914959;75;20092;-79
2021/06/19 05:42:28;;;;;;;11.00;9.80;;;;;;;;;;1915083;75;20115;-80
2021/06/19 05:44:55;;;;;;;11.85;8.98;;;;;;;;;;1914797;75;20449;-79
2021/06/19 05:47:23;;;;;;;11.18;8.90;;;;;;;;;;1913617;75;20092;-77
2021/06/19 05:49:53;;;;;;;13.52;9.55;;;;;;;;;;1911151;75;20096;-77
2021/06/19 05:52:22;;;;;;;11.43;8.93;;;;;;;;;;1910924;75;20563;-78
2021/06/19 05:54:49;;;;;;;10.93;9.23;;;;;;;;;;1911519;75;20142;-78
2021/06/19 05:57:16;;;;;;;12.27;9.63;;;;;;;;;;1911416;75;20084;-78
2021/06/19 05:59:42;;;;;;;12.55;9.68;;;;;;;;;;1911681;75;20199;-80
2021/06/19 06:02:10;;;;;;;13.30;9.38;;;;;;;;;;1907333;75;20084;-79
2021/06/19 06:04:38;;;;;;;11.30;9.65;;;;;;;;;;1909925;75;20513;-79
2021/06/19 06:07:05;;;;;;;10.95;9.10;;;;;;;;;;1911159;75;20080;-78
2021/06/19 06:09:32;;;;;;;12.13;9.57;;;;;;;;;;1911257;75;20095;-78
2021/06/19 06:11:59;;;;;;;14.30;9.80;;;;;;;;;;1911734;75;20100;-80
2021/06/19 06:14:26;;;;;;;9.93;8.77;;;;;;;;;;1911155;75;20092;-79
2021/06/19 06:16:53;;;;;;;10.90;8.75;;;;;;;;;;1911336;75;20084;-79
2021/06/19 06:19:22;;;;;;;12.52;9.15;;;;;;;;;;1910446;75;20146;-79
2021/06/19 06:21:50;;;;;;;14.13;9.10;;;;;;;;;;1911298;75;20129;-77
2021/06/19 06:24:20;;;;;;;10.48;8.52;;;;;;;;;;1911249;75;20100;-78
2021/06/19 06:26:47;;;;;;;;;;;;;;;;;;1911490;75;20111;-78
2021/06/19 06:29:13;;;;;;;12.75;9.07;;;;;;;;;;1910913;75;20352;-78
2021/06/19 06:31:40;;;;;;;11.85;9.00;;;;;;;;;;1911148;75;20397;-79
2021/06/19 06:34:07;;;;;;;12.70;8.25;;;;;;;;;;1910458;75;20088;-78
2021/06/19 06:36:34;;;;;;;10.05;8.25;;;;;;;;;;1911024;75;20092;-78
2021/06/19 06:39:04;;;;;;;12.40;8.68;;;;;;;;;;1911162;75;20509;-77
2021/06/19 06:41:31;;;;;;;12.57;8.20;;;;;;;;;;1911368;75;20108;-77
2021/06/19 06:43:58;;;;;;;11.02;7.85;;;;;;;;;;1911103;75;20506;-78
2021/06/19 06:46:25;;;;;;;12.05;8.45;;;;;;;;;;1910957;75;20509;-77
2021/06/19 06:48:52;;;;;;;12.98;8.15;;;;;;;;;;1911527;75;20118;-78
2021/06/19 06:51:18;;;;;;;11.00;8.07;;;;;;;;;;1911275;75;20437;-77
2021/06/19 06:53:45;;;;;;;11.93;8.32;;;;;;;;;;1911455;75;20084;-79
2021/06/19 06:56:13;;;;;;;10.93;7.57;;;;;;;;;;1907348;75;20585;-79
2021/06/19 06:58:40;;;;;;;10.00;7.88;;;;;;;;;;1907435;75;20643;-78
2021/06/19 07:01:08;;;;;;;11.10;8.25;;;;;;;;;;1907271;75;20084;-76
2021/06/19 07:03:35;;;;;;;13.70;8.68;;;;;;;;;;1907392;75;20081;-77
2021/06/19 07:06:03;;;;;;;11.13;7.95;;;;;;;;;;1910733;75;20088;-77
2021/06/19 07:08:30;;;;;;;11.18;8.98;;;;;;;;;;1912304;75;20118;-78
2021/06/19 07:10:57;;;;;;;12.63;7.97;;;;;;;;;;1910692;75;20153;-76
2021/06/19 07:13:25;;;;;;;10.35;7.97;;;;;;;;;;1910038;75;20598;-77
2021/06/19 07:15:52;;;;;;;9.73;8.02;;;;;;;;;;1910335;67;20088;-78
2021/06/19 07:18:19;;;;;;;16.95;8.70;;;;;;;;;;1910361;75;20092;-77
2021/06/19 07:20:46;;;;;;;9.88;8.30;;;;;;;;;;1911049;75;20091;-76
2021/06/19 07:23:13;;;;;;;12.45;8.13;;;;;;;;;;1910425;75;20088;-76
2021/06/19 07:25:40;;;;;;;12.43;8.05;;;;;;;;;;1911427;75;20145;-79
2021/06/19 07:28:07;;;;;;;8.75;7.55;;;;;;;;;;1911218;75;20096;-77
2021/06/19 07:30:35;;;;;;;10.63;7.32;;;;;;;;;;1910569;75;20092;-79
2021/06/19 07:33:02;;;;;;;9.98;7.72;;;;;;;;;;1904626;75;20433;-78
2021/06/19 07:35:29;;;;;;;10.85;7.35;;;;;;;;;;1910370;75;20100;-78
2021/06/19 07:37:56;;;;;;;8.35;7.45;;;;;;;;;;1913389;75;20084;-79
2021/06/19 07:40:25;;;;;;;10.88;8.13;;;;;;;;;;1912108;75;20657;-80
2021/06/19 07:42:55;;;;;;;10.32;7.60;;;;;;;;;;1913791;75;20514;-78
2021/06/19 07:45:24;;;;;;;9.68;8.02;;;;;;;;;;1909679;75;20096;-78
2021/06/19 07:47:53;;;;;;;10.07;7.68;;;;;;;;;;1909485;75;20088;-78
2021/06/19 07:50:20;;;;;;;10.35;7.63;;;;;;;;;;1909404;75;20183;-77
2021/06/19 07:52:47;;;;;;;11.57;7.50;;;;;;;;;;1910253;75;20088;-78
2021/06/19 07:55:14;;;;;;;9.48;7.15;;;;;;;;;;1912545;75;20163;-78
2021/06/19 07:57:42;;;;;;;14.70;8.15;;;;;;;;;;1915847;75;20106;-79
2021/06/19 08:00:12;;;;;;;10.60;7.78;;;;;;;;;;1916375;75;20129;-81
2021/06/19 08:02:42;;;;;;;13.77;9.57;;;;;;;;;;1914966;75;20164;-79
2021/06/19 08:05:12;;;;;;;10.40;7.82;;;;;;;;;;1914061;75;20116;-78
2021/06/19 08:07:40;;;;;;;10.15;7.93;;;;;;;;;;1913947;75;20092;-77
2021/06/19 08:10:09;;;;;;;11.55;7.60;;;;;;;;;;1913537;75;20692;-78
2021/06/19 08:12:37;;;;;;;12.40;8.50;;;;;;;;;;1910685;75;20119;-78
2021/06/19 08:15:05;;;;;;;11.00;7.78;;;;;;;;;;1911070;75;20092;-78
2021/06/19 08:17:32;;;;;;;12.10;8.95;;;;;;;;;;1911636;75;20088;-77
2021/06/19 08:19:58;;;;;;;9.80;7.70;;;;;;;;;;1910487;75;20452;-78
2021/06/19 08:22:27;;;;;;;11.90;7.80;;;;;;;;;;1910982;75;20097;-78
2021/06/19 08:24:53;;;;;;;9.98;7.78;;;;;;;;;;1909065;75;20514;-80
2021/06/19 08:27:24;;;;;;;11.68;7.85;;;;;;;;;;1913277;75;20089;-80
2021/06/19 08:30:19;;;;;;;11.68;8.82;;;;;;;;;;1912257;75;20080;-79
2021/06/19 08:32:47;;;;;;;11.45;9.30;;;;;;;;;;1902758;67;20109;-78
2021/06/19 08:35:14;;;;;;;12.65;9.40;;;;;;;;;;1897638;76;20098;-78
2021/06/19 08:37:43;;;;;;;14.35;10.90;;;;;;;;;;1900746;75;20094;-80
2021/06/19 08:40:12;;;;;;;13.18;8.77;;;;;;;;;;1906872;75;20755;-79
2021/06/19 08:42:39;;;;;;;11.95;9.98;;;;;;;;;;1906642;75;20130;-80
2021/06/19 08:45:10;;;;;;;12.20;10.02;;;;;;;;;;1904115;75;20098;-80
2021/06/19 08:47:37;;;;;;;17.42;12.27;;;;;;;;;;1906933;75;20093;-82
2021/06/19 08:50:07;;;;;;;10.88;7.90;;;;;;;;;;1902465;75;20112;-80
2021/06/19 08:52:35;;;;;;;10.27;7.97;;;;;;;;;;1909749;75;20115;-80
2021/06/19 08:55:04;;;;;;;11.05;7.47;;;;;;;;;;1913212;75;20502;-79
2021/06/19 08:57:33;;;;;;;9.07;7.95;;;;;;;;;;1913115;75;20095;-80
2021/06/19 09:00:01;;;;;;;12.60;8.63;;;;;;;;;;1913314;75;20538;-80
2021/06/19 09:02:28;;;;;;;9.27;7.55;;;;;;;;;;1912668;75;20123;-79
2021/06/19 09:04:59;;;;;;;9.85;7.35;;;;;;;;;;1913241;75;20178;-79
2021/06/19 09:07:49;;;;;;;10.25;7.55;;;;;;;;;;1913112;75;20092;-81
2021/06/19 09:10:41;;;;;;;9.38;8.27;;;;;;;;;;1912823;75;20100;-79
2021/06/19 09:13:13;;;;;;;11.18;7.68;;;;;;;;;;1909861;75;20092;-80
2021/06/19 09:15:45;;;;;;;9.90;7.35;;;;;;;;;;1912883;75;20093;-80
2021/06/19 09:18:18;;;;;;;13.60;8.02;;;;;;;;;;1909354;75;20077;-80
2021/06/19 09:20:56;;;;;;;10.15;8.10;;;;;;;;;;1909044;75;20084;-80
2021/06/19 09:23:31;;;;;;;11.43;7.53;;;;;;;;;;1909095;75;20089;-79
2021/06/19 09:26:15;;;;;;;14.27;8.82;;;;;;;;;;1910049;75;20112;-81
2021/06/19 09:29:10;;;;;;;12.15;8.73;;;;;;;;;;1912660;75;20088;-80
2021/06/19 09:31:41;;;;;;;14.68;12.57;;;;;;;;;;1912779;75;20148;-80
2021/06/19 09:34:13;;;;;;;11.68;8.02;;;;;;;;;;1910197;75;20123;-81
2021/06/19 09:36:52;;;;;;;11.13;8.00;;;;;;;;;;1912953;75;20092;-80
2021/06/19 09:39:24;;;;;;;13.07;8.25;;;;;;;;;;1913035;75;20092;-79
2021/06/19 09:41:56;;;;;;;10.35;8.55;;;;;;;;;;1912772;75;20092;-78
2021/06/19 09:44:38;;;;;;;11.50;9.15;;;;;;;;;;1913297;75;20088;-80
2021/06/19 09:47:05;;;;;;;9.32;7.70;;;;;;;;;;1907740;75;20084;-79
2021/06/19 09:49:33;;;;;;;10.60;8.55;;;;;;;;;;1909347;75;20223;-80
2021/06/19 09:52:03;;;;;;;13.40;9.30;;;;;;;;;;1906727;75;20100;-79
2021/06/19 09:54:40;;;;;;;10.82;8.52;;;;;;;;;;1908925;75;20089;-79
2021/06/19 09:57:11;;;;;;;9.52;8.52;;;;;;;;;;1903149;75;20564;-79
2021/06/19 09:59:39;;;;;;;13.23;9.30;;;;;;;;;;1903424;75;20086;-79
2021/06/19 10:02:27;;;;;;;11.45;7.95;;;;;;;;;;1911803;61;20081;-80
2021/06/19 10:05:12;;;;;;;10.75;8.50;;;;;;;;;;1907068;75;20347;-81
2021/06/19 10:08:26;;;;;;;12.70;8.57;;;;;;;;;;1910055;75;20093;-80
2021/06/19 10:11:37;;;;;;;12.88;8.32;;;;;;;;;;1909271;75;20092;-81
2021/06/19 10:14:26;;;;;;;13.18;9.18;;;;;;;;;;1900540;75;20089;-80
2021/06/19 10:16:55;;;;;;;10.83;8.70;;;;;;;;;;1903584;75;20098;-79
2021/06/19 10:19:30;;;;;;;9.90;8.77;;;;;;;;;;1907010;75;20097;-81
2021/06/19 10:21:57;;;;;;;9.68;8.57;;;;;;;;;;1908645;75;20386;-80
2021/06/19 10:24:25;;;;;;;11.48;9.43;;;;;;;;;;1908633;75;20093;-80
2021/06/19 10:27:02;;;;;;;9.23;8.32;;;;;;;;;;1908309;75;20151;-80
2021/06/19 10:29:32;;;;;;;13.20;11.85;;;;;;;;;;1905040;75;20499;-80
2021/06/19 10:32:01;;;;;;;12.38;10.25;;;;;;;;;;1904597;75;20093;-79
2021/06/19 10:34:30;;;;;;;14.68;10.80;;;;;;;;;;1904550;75;20541;-80
2021/06/19 10:37:03;;;;;;;12.73;10.02;;;;;;;;;;1904592;75;20127;-80
2021/06/19 10:39:42;;;;;;;12.00;9.23;;;;;;;;;;1904245;75;20149;-81
2021/06/19 10:42:30;;;;;;;;;;;;;;;;;;1905235;75;20099;-80
2021/06/19 10:45:20;;;;;;;10.40;8.70;;;;;;;;;;1905397;75;19968;-79
2021/06/19 10:48:04;;;;;;;;;;;;;;;;;;1905691;75;20085;-80
2021/06/19 10:50:31;;;;;;;14.80;11.90;;;;;;;;;;1905563;75;19964;-79
2021/06/19 10:55:29;;;;;;;11.73;9.45;;;;;;;;;;1910495;67;20092;-80
2021/06/19 10:58:19;;;;;;;12.18;9.70;;;;;;;;;;1910944;75;20525;-81
2021/06/19 11:00:50;;;;;;;12.68;8.98;;;;;;;;;;1909973;75;20632;-80
2021/06/19 11:03:39;;;;;;;11.80;8.45;;;;;;;;;;1910020;75;20088;-80
2021/06/19 11:06:22;;;;;;;10.43;9.05;;;;;;;;;;1909705;75;20136;-81
2021/06/19 11:09:00;;;;;;;10.15;8.82;;;;;;;;;;1909661;75;20114;-80
2021/06/19 11:12:03;;;;;;;9.70;8.68;;;;;;;;;;1909992;75;20088;-81
2021/06/19 11:15:02;;;;;;;9.82;8.32;;;;;;;;;;1910164;75;20096;-81
2021/06/19 11:18:02;;;;;;;16.52;9.05;;;;;;;;;;1908316;75;20321;-81
2021/06/19 11:20:33;;;;;;;12.27;9.27;;;;;;;;;;1904659;75;20091;-81
2021/06/19 11:23:11;;;;;;;13.88;10.38;;;;;;;;;;1910408;75;20092;-79
2021/06/19 11:28:34;;;;;;;11.63;9.18;;;;;;;;;;1910023;75;20084;-80
2021/06/19 11:31:29;;;;;;;12.55;9.70;;;;;;;;;;1910292;75;20099;-81
2021/06/19 11:33:58;;;;;;;9.85;8.45;;;;;;;;;;1910475;75;20092;-79
2021/06/19 11:36:35;;;;;;;9.90;8.90;;;;;;;;;;1910318;75;20092;-80
2021/06/19 11:45:00;;;;;;;11.48;9.02;;;;;;;;;;1881147;65;20110;-79
2021/06/19 11:47:27;;;;;;;12.52;9.40;;;;;;;;;;1911005;75;20088;-80
2021/06/19 11:49:55;;;;;;;10.02;8.98;;;;;;;;;;1910818;75;20088;-81
2021/06/19 11:52:22;;;;;;;12.38;10.75;;;;;;;;;;1910370;75;20122;-81
2021/06/19 11:55:00;;;;;;;11.10;9.20;;;;;;;;;;1911290;75;20146;-80
2021/06/19 11:57:29;;;;;;;12.13;9.65;;;;;;;;;;1913434;67;20509;-76
2021/06/19 12:00:08;;;;;;;11.10;9.55;;;;;;;;;;1912344;75;20251;-76
2021/06/19 12:02:36;;;;;;;12.70;10.20;;;;;;;;;;1912108;75;20141;-76
2021/06/19 12:05:14;;;;;;;11.00;9.32;;;;;;;;;;1912568;75;20091;-77
2021/06/19 12:07:41;;;;;;;9.73;8.65;;;;;;;;;;1912159;75;20092;-78
2021/06/19 12:10:22;;;;;;;10.90;8.98;;;;;;;;;;1912279;75;20096;-76
2021/06/19 12:12:56;;;;;;;10.20;8.45;;;;;;;;;;1912767;75;20153;-77
2021/06/19 12:15:23;;;;;;;10.88;8.90;;;;;;;;;;1912744;75;20110;-78
2021/06/19 12:17:50;;;;;;;11.75;8.63;;;;;;;;;;1912968;75;20095;-76
2021/06/19 12:20:22;;;;;;;9.73;8.32;;;;;;;;;;1912352;75;20083;-77
2021/06/19 12:22:48;;;;;;;10.00;8.75;;;;;;;;;;1912560;75;20091;-77
2021/06/19 12:28:38;;;;;;;10.32;8.63;;;;;;;;;;1912227;67;20144;-77
2021/06/19 12:31:06;;;;;;;11.07;8.93;;;;;;;;;;1912142;75;20088;-77
2021/06/19 12:33:34;;;;;;;14.63;11.18;;;;;;;;;;1912220;75;20091;-78
2021/06/19 12:36:06;;;;;;;12.35;8.93;;;;;;;;;;1912204;75;20091;-78
2021/06/19 12:38:33;;;;;;;9.38;8.30;;;;;;;;;;1912326;75;20084;-77
2021/06/19 12:41:00;;;;;;;13.60;10.40;;;;;;;;;;1912279;75;20149;-76
2021/06/19 12:43:28;;;;;;;14.90;11.38;;;;;;;;;;1912311;75;20087;-76
2021/06/19 12:45:56;;;;;;;11.27;7.95;;;;;;;;;;1912112;75;20096;-78
2021/06/19 12:48:25;;;;;;;13.30;10.32;;;;;;;;;;1912537;75;20145;-77
2021/06/19 12:50:54;;;;;;;9.32;8.43;;;;;;;;;;1912129;75;20092;-77
2021/06/19 12:53:27;;;;;;;8.82;7.93;;;;;;;;;;1912244;75;20094;-76
2021/06/19 12:56:03;;;;;;;10.75;8.43;;;;;;;;;;1912401;75;20627;-77
2021/06/19 12:58:36;;;;;;;11.63;8.68;;;;;;;;;;1912160;75;20149;-76
2021/06/19 13:01:04;;;;;;;12.05;8.82;;;;;;;;;;1912266;75;20444;-77
2021/06/19 13:03:48;;;;;;;11.40;9.02;;;;;;;;;;1912532;75;20156;-77
2021/06/19 13:06:27;;;;;;;10.00;8.95;;;;;;;;;;1912583;75;20084;-76
2021/06/19 13:08:57;;;;;;;10.85;8.68;;;;;;;;;;1912760;75;20088;-76
2021/06/19 13:11:27;;;;;;;10.45;8.85;;;;;;;;;;1913286;75;20424;-76
2021/06/19 13:13:54;;;;;;;10.43;9.27;;;;;;;;;;1914102;75;20091;-76
2021/06/19 13:16:29;;;;;;;10.55;9.43;;;;;;;;;;1913807;75;20098;-77
2021/06/19 13:18:58;;;;;;;9.65;8.65;;;;;;;;;;1913555;75;20087;-76
2021/06/19 13:21:29;;;;;;;10.15;8.43;;;;;;;;;;1912566;75;20149;-78
2021/06/19 13:23:58;;;;;;;10.05;9.02;;;;;;;;;;1912636;75;20432;-77
2021/06/19 13:26:27;;;;;;;12.38;8.98;;;;;;;;;;1912793;75;20098;-77
2021/06/19 13:29:00;;;;;;;11.40;9.15;;;;;;;;;;1912534;75;20083;-74
2021/06/19 13:31:33;;;;;;;10.88;9.77;;;;;;;;;;1912724;75;20102;-77
2021/06/19 13:34:02;;;;;;;12.05;10.70;;;;;;;;;;1912558;75;20088;-76
2021/06/19 13:36:47;;;;;;;11.23;9.50;;;;;;;;;;1912426;75;20122;-76
2021/06/19 13:39:21;;;;;;;12.45;10.10;;;;;;;;;;1913259;75;20149;-78
2021/06/19 13:41:50;;;;;;;12.02;9.07;;;;;;;;;;1912779;75;20090;-80
2021/06/19 13:44:18;;;;;;;12.90;11.60;;;;;;;;;;1913328;75;20148;-77
2021/06/19 13:46:47;;;;;;;12.23;11.00;;;;;;;;;;1913141;75;20149;-75
2021/06/19 13:49:15;;;;;;;11.73;9.30;;;;;;;;;;1912215;75;20107;-76
2021/06/19 13:51:44;;;;;;;11.53;10.13;;;;;;;;;;1912919;75;20497;-76
2021/06/19 13:54:11;;;;;;;11.03;8.53;;;;;;;;;;1912502;75;20087;-78
2021/06/19 13:56:47;;;;;;;11.55;9.18;;;;;;;;;;1913223;75;20805;-80
2021/06/19 13:59:14;;;;;;;14.73;11.05;;;;;;;;;;1915910;67;20091;-78
2021/06/19 14:01:42;;;;;;;13.43;11.43;;;;;;;;;;1916507;75;20099;-78
2021/06/19 14:04:10;;;;;;;10.70;8.85;;;;;;;;;;1916944;75;20091;-78
2021/06/19 14:09:29;;;;;;;11.02;10.02;;;;;;;;;;1918169;75;20084;-77
2021/06/19 14:11:57;;;;;;;11.48;9.15;;;;;;;;;;1917315;75;20531;-79
2021/06/19 14:14:24;;;;;;;9.02;8.13;;;;;;;;;;1916347;75;20088;-78
2021/06/19 14:16:51;;;;;;;9.48;8.27;;;;;;;;;;1916984;75;20092;-78
2021/06/19 14:19:17;;;;;;;11.73;10.52;;;;;;;;;;1917365;75;20087;-78
2021/06/19 14:21:44;;;;;;;8.88;7.63;;;;;;;;;;1917675;75;20092;-78
2021/06/19 14:24:11;;;;;;;9.52;8.52;;;;;;;;;;1917749;75;20501;-78
2021/06/19 14:26:38;;;;;;;12.13;9.20;;;;;;;;;;1917635;75;20087;-78
2021/06/19 14:29:07;;;;;;;9.40;8.52;;;;;;;;;;1917322;75;20083;-78
2021/06/19 14:31:35;;;;;;;9.27;8.48;;;;;;;;;;1916986;75;20101;-79
2021/06/19 14:34:02;;;;;;;8.68;7.85;;;;;;;;;;1914453;75;20092;-79
2021/06/19 14:36:29;;;;;;;10.32;9.25;;;;;;;;;;1916992;75;20092;-80
2021/06/19 14:38:56;;;;;;;10.35;9.25;;;;;;;;;;1916133;75;20124;-78
2021/06/19 14:41:22;;;;;;;9.85;8.88;;;;;;;;;;1916120;75;20095;-77
2021/06/19 14:43:49;;;;;;;14.23;12.82;;;;;;;;;;1914770;75;20095;-79
2021/06/19 14:46:19;;;;;;;11.02;10.10;;;;;;;;;;1914457;75;20095;-79
2021/06/19 14:48:46;;;;;;;11.52;9.90;;;;;;;;;;1914027;75;20176;-79
2021/06/19 14:51:13;;;;;;;12.43;11.23;;;;;;;;;;1914047;75;20505;-79
2021/06/19 14:53:40;;;;;;;12.55;11.20;;;;;;;;;;1914035;75;20521;-79
2021/06/19 14:56:06;;;;;;;10.18;8.15;;;;;;;;;;1914227;75;20087;-79
2021/06/19 14:58:34;;;;;;;11.10;9.45;;;;;;;;;;1914444;75;20141;-79
2021/06/19 15:01:01;;;;;;;12.55;9.45;;;;;;;;;;1914457;75;20095;-79
2021/06/19 15:03:30;;;;;;;9.20;8.30;;;;;;;;;;1914131;75;20095;-79